createdAt,value
2023-01-09T00:02:49.978Z,2.25
2023-01-09T00:05:52.597Z,2.30
2023-01-09T00:08:54.865Z,1.90
2023-01-09T00:11:57.874Z,2.45
2023-01-09T00:15:00.178Z,2.15
2023-01-09T00:18:02.350Z,1.80
2023-01-09T00:21:06.622Z,2.10
2023-01-09T00:24:09.606Z,2.03
2023-01-09T00:27:12.522Z,1.70
2023-01-09T00:30:14.748Z,1.90
2023-01-09T00:33:16.874Z,1.50
2023-01-09T00:36:18.994Z,1.58
2023-01-09T00:39:24.618Z,1.52
2023-01-09T00:42:32.037Z,1.60
2023-01-09T00:45:34.249Z,1.60
2023-01-09T00:48:39.543Z,1.33
2023-01-09T00:51:42.521Z,1.08
2023-01-09T00:54:45.495Z,0.93
2023-01-09T00:57:47.963Z,1.30
2023-01-09T01:00:50.206Z,1.17
2023-01-09T01:03:52.395Z,1.33
2023-01-09T01:07:13.353Z,1.20
2023-01-09T01:10:22.672Z,1.30
2023-01-09T01:13:25.013Z,0.95
2023-01-09T01:16:27.222Z,1.02
2023-01-09T01:19:29.413Z,1.00
2023-01-09T01:22:31.668Z,1.13
2023-01-09T01:25:39.578Z,1.00
2023-01-09T01:28:42.516Z,1.10
2023-01-09T01:31:44.639Z,0.80
2023-01-09T01:34:47.831Z,1.10
2023-01-09T01:37:50.091Z,1.00
2023-01-09T01:40:55.519Z,0.80
2023-01-09T01:44:06.103Z,0.90
2023-01-09T01:47:08.423Z,1.00
2023-01-09T01:50:27.252Z,0.90
2023-01-09T01:53:40.899Z,0.88
2023-01-09T01:56:46.625Z,0.60
2023-01-09T01:59:55.932Z,0.75
2023-01-09T02:02:59.338Z,0.90
2023-01-09T02:06:05.001Z,1.08
2023-01-09T02:09:07.861Z,1.00
2023-01-09T02:12:20.613Z,1.10
2023-01-09T02:15:22.947Z,1.25
2023-01-09T02:18:54.196Z,1.10
2023-01-09T02:22:02.345Z,0.95
2023-01-09T02:25:13.019Z,1.20
2023-01-09T02:28:34.619Z,1.30
2023-01-09T02:32:15.376Z,1.45
2023-01-09T02:35:28.025Z,1.50
2023-01-09T02:38:49.693Z,1.77
2023-01-09T02:42:16.726Z,1.60
2023-01-09T02:45:18.919Z,1.70
2023-01-09T02:48:21.131Z,1.92
2023-01-09T02:51:56.950Z,1.60
2023-01-09T02:55:25.923Z,1.83
2023-01-09T02:59:03.372Z,1.65
2023-01-09T03:02:41.373Z,2.00
2023-01-09T03:05:52.047Z,1.50
2023-01-09T03:09:02.948Z,1.70
2023-01-09T03:12:10.447Z,2.10
2023-01-09T03:15:15.185Z,1.90
2023-01-09T03:18:21.201Z,2.03
2023-01-09T03:21:24.256Z,2.00
2023-01-09T03:24:26.563Z,2.00
2023-01-09T03:27:28.850Z,1.75
2023-01-09T03:30:32.492Z,1.60
2023-01-09T03:33:34.635Z,1.63
2023-01-09T03:36:36.739Z,1.73
2023-01-09T03:39:39.033Z,1.42
2023-01-09T03:42:41.157Z,1.48
2023-01-09T03:45:43.451Z,1.70
2023-01-09T03:48:45.572Z,1.50
2023-01-09T03:51:47.728Z,1.77
2023-01-09T03:54:49.886Z,1.42
2023-01-09T03:57:53.031Z,1.40
2023-01-09T04:01:00.471Z,1.33
2023-01-09T04:04:02.885Z,1.40
2023-01-09T04:07:04.994Z,1.20
2023-01-09T04:10:07.390Z,1.30
2023-01-09T04:13:09.505Z,1.30
2023-01-09T04:16:11.743Z,1.50
2023-01-09T04:19:13.991Z,1.33
2023-01-09T04:22:16.099Z,1.70
2023-01-09T04:25:18.319Z,1.20
2023-01-09T04:28:20.462Z,1.73
2023-01-09T04:31:22.684Z,1.30
2023-01-09T04:34:25.935Z,1.30
2023-01-09T04:37:28.055Z,1.45
2023-01-09T04:40:30.235Z,1.35
2023-01-09T04:43:32.445Z,1.30
2023-01-09T04:46:34.580Z,1.70
2023-01-09T04:49:36.779Z,1.40
2023-01-09T04:52:39.291Z,1.70
2023-01-09T04:55:42.983Z,1.40
2023-01-09T04:58:45.080Z,1.73
2023-01-09T05:01:47.381Z,1.42
2023-01-09T05:04:49.611Z,1.70
2023-01-09T05:07:51.797Z,1.40
2023-01-09T05:10:53.866Z,1.50
2023-01-09T05:13:56.033Z,1.70
2023-01-09T05:16:58.173Z,1.30
2023-01-09T05:20:02.953Z,1.40
2023-01-09T05:23:05.505Z,1.50
2023-01-09T05:26:07.619Z,1.52
2023-01-09T05:29:10.643Z,1.27
2023-01-09T05:32:12.793Z,1.60
2023-01-09T05:35:15.008Z,1.50
2023-01-09T05:38:17.262Z,1.60
2023-01-09T05:41:19.446Z,1.33
2023-01-09T05:44:21.586Z,1.27
2023-01-09T05:47:23.679Z,1.60
2023-01-09T05:50:25.836Z,1.50
2023-01-09T05:53:28.030Z,1.17
2023-01-09T05:56:30.403Z,1.10
2023-01-09T05:59:32.516Z,1.50
2023-01-09T06:02:34.695Z,1.10
2023-01-09T06:05:37.109Z,1.00
2023-01-09T06:08:39.313Z,1.13
2023-01-09T06:11:41.422Z,1.00
2023-01-09T06:14:43.521Z,1.10
2023-01-09T06:17:45.642Z,0.90
2023-01-09T06:20:47.803Z,0.90
2023-01-09T06:23:50.484Z,0.90
2023-01-09T06:26:52.670Z,0.93
2023-01-09T06:29:54.939Z,1.00
2023-01-09T06:32:57.398Z,0.90
2023-01-09T06:35:59.676Z,1.10
2023-01-09T06:39:01.924Z,1.20
2023-01-09T06:42:04.279Z,0.85
2023-01-09T06:45:06.986Z,1.10
2023-01-09T06:48:09.334Z,1.00
2023-01-09T06:51:11.517Z,1.20
2023-01-09T06:54:13.643Z,1.00
2023-01-09T06:57:16.374Z,1.00
2023-01-09T07:00:19.145Z,1.13
2023-01-09T07:03:22.667Z,1.20
2023-01-09T07:06:25.156Z,1.33
2023-01-09T07:09:27.254Z,1.15
2023-01-09T07:12:29.350Z,1.25
2023-01-09T07:15:31.523Z,1.30
2023-01-09T07:18:33.706Z,1.08
2023-01-09T07:21:35.863Z,1.45
2023-01-09T07:24:38.023Z,1.52
2023-01-09T07:27:40.177Z,1.73
2023-01-09T07:30:42.424Z,1.73
2023-01-09T07:33:44.515Z,2.00
2023-01-09T07:36:46.746Z,1.92
2023-01-09T07:39:48.917Z,1.90
2023-01-09T07:42:53.509Z,2.00
2023-01-09T07:45:55.657Z,2.00
2023-01-09T07:48:57.769Z,2.17
2023-01-09T07:51:59.965Z,2.40
2023-01-09T07:55:02.088Z,2.20
2023-01-09T07:58:04.273Z,2.30
2023-01-09T08:01:06.939Z,2.25
2023-01-09T08:04:09.188Z,2.50
2023-01-09T08:07:11.444Z,2.55
2023-01-09T08:10:13.721Z,2.60
2023-01-09T08:13:16.203Z,3.00
2023-01-09T08:16:18.607Z,2.63
2023-01-09T08:19:20.860Z,2.75
2023-01-09T08:22:22.949Z,2.70
2023-01-09T08:25:25.724Z,2.33
2023-01-09T08:28:27.851Z,2.85
2023-01-09T08:31:29.998Z,2.25
2023-01-09T08:34:32.537Z,2.80
2023-01-09T08:37:34.997Z,2.20
2023-01-09T08:40:37.254Z,2.53
2023-01-09T08:43:58.109Z,2.70
2023-01-09T08:47:06.064Z,2.47
2023-01-09T08:50:08.646Z,2.72
2023-01-09T08:53:15.462Z,2.60
2023-01-09T08:56:17.615Z,2.25
2023-01-09T08:59:19.834Z,3.25
2023-01-09T09:02:22.170Z,2.80
2023-01-09T09:05:25.835Z,3.10
2023-01-09T09:08:28.074Z,3.17
2023-01-09T09:11:31.192Z,3.03
2023-01-09T09:14:52.056Z,4.00
2023-01-09T09:18:02.947Z,4.10
2023-01-09T09:21:05.316Z,4.15
2023-01-09T09:24:07.534Z,4.10
2023-01-09T09:27:09.621Z,4.78
2023-01-09T09:30:13.575Z,4.80
2023-01-09T09:33:15.644Z,5.20
2023-01-09T09:36:17.784Z,5.20
2023-01-09T09:39:19.883Z,5.40
2023-01-09T09:43:03.866Z,5.80
2023-01-09T09:46:24.411Z,6.00
2023-01-09T09:49:34.743Z,6.13
2023-01-09T09:52:50.656Z,7.28
2023-01-09T09:55:53.302Z,6.95
2023-01-09T09:59:11.342Z,6.82
2023-01-09T10:02:42.275Z,6.80
2023-01-09T10:05:48.491Z,7.00
2023-01-09T10:09:02.855Z,7.45
2023-01-09T10:12:08.447Z,7.57
2023-01-09T10:15:19.956Z,7.20
2023-01-09T10:18:39.945Z,7.13
2023-01-09T10:22:20.111Z,7.53
2023-01-09T10:25:33.580Z,7.68
2023-01-09T10:28:57.523Z,7.93
2023-01-09T10:32:11.138Z,7.45
2023-01-09T10:35:22.467Z,7.65
2023-01-09T10:38:31.585Z,7.07
2023-01-09T10:42:00.055Z,7.20
2023-01-09T10:45:42.497Z,7.43
2023-01-09T10:48:54.891Z,8.73
2023-01-09T10:52:18.396Z,8.27
2023-01-09T10:55:47.894Z,7.65
2023-01-09T10:58:51.630Z,8.95
2023-01-09T11:01:54.205Z,8.63
2023-01-09T11:04:56.502Z,7.65
2023-01-09T11:08:21.867Z,7.53
2023-01-09T11:11:36.601Z,8.70
2023-01-09T11:14:38.767Z,8.40
2023-01-09T11:17:41.217Z,9.05
2023-01-09T11:20:43.572Z,9.25
2023-01-09T11:23:45.720Z,8.25
2023-01-09T11:26:49.766Z,9.07
2023-01-09T11:30:16.617Z,7.55
2023-01-09T11:33:25.214Z,9.95
2023-01-09T11:36:28.322Z,9.10
2023-01-09T11:39:34.999Z,8.10
2023-01-09T11:42:53.530Z,9.00
2023-01-09T11:46:01.694Z,10.05
2023-01-09T11:49:25.352Z,9.32
2023-01-09T11:52:27.520Z,8.95
2023-01-09T11:55:41.809Z,9.23
2023-01-09T11:58:44.978Z,9.77
2023-01-09T12:02:18.945Z,9.45
2023-01-09T12:05:54.669Z,8.85
2023-01-09T12:09:04.204Z,8.55
2023-01-09T12:12:09.048Z,9.00
2023-01-09T12:15:32.802Z,8.57
2023-01-09T12:18:45.488Z,8.65
2023-01-09T12:22:25.421Z,7.70
2023-01-09T12:25:36.482Z,7.22
2023-01-09T12:29:02.019Z,8.00
2023-01-09T12:32:32.397Z,9.18
2023-01-09T12:35:40.456Z,7.97
2023-01-09T12:39:00.380Z,7.90
2023-01-09T12:42:13.810Z,7.47
2023-01-09T12:45:40.743Z,8.45
2023-01-09T12:49:04.779Z,8.90
2023-01-09T12:52:20.587Z,8.32
2023-01-09T12:55:25.630Z,8.60
2023-01-09T12:58:39.395Z,8.57
2023-01-09T13:01:48.722Z,7.70
2023-01-09T13:04:59.822Z,7.80
2023-01-09T13:08:28.288Z,8.20
2023-01-09T13:11:49.049Z,9.25
2023-01-09T13:15:05.709Z,7.63
2023-01-09T13:18:22.198Z,9.20
2023-01-09T13:21:24.774Z,8.25
2023-01-09T13:24:35.720Z,7.70
2023-01-09T13:27:41.106Z,8.75
2023-01-09T13:31:20.551Z,9.07
2023-01-09T13:34:26.533Z,7.60
2023-01-09T13:37:34.738Z,8.82
2023-01-09T13:40:38.211Z,8.52
2023-01-09T13:44:01.999Z,9.68
2023-01-09T13:47:04.887Z,8.75
2023-01-09T13:50:10.070Z,9.48
2023-01-09T13:53:18.305Z,8.63
2023-01-09T13:56:23.692Z,8.65
2023-01-09T13:59:28.208Z,9.18
2023-01-09T14:02:38.721Z,9.02
2023-01-09T14:05:40.798Z,9.05
2023-01-09T14:08:44.561Z,9.35
2023-01-09T14:11:47.580Z,7.88
2023-01-09T14:14:53.830Z,7.85
2023-01-09T14:18:15.411Z,7.50
2023-01-09T14:21:18.279Z,6.63
2023-01-09T14:24:26.563Z,7.07
2023-01-09T14:28:10.608Z,6.88
2023-01-09T14:31:31.780Z,6.85
2023-01-09T14:34:39.034Z,6.57
2023-01-09T14:37:42.641Z,6.90
2023-01-09T14:40:53.776Z,7.10
2023-01-09T14:44:06.587Z,6.70
2023-01-09T14:47:19.744Z,6.07
2023-01-09T14:50:45.133Z,6.40
2023-01-09T14:53:49.702Z,5.28
2023-01-09T14:56:51.857Z,6.00
2023-01-09T15:00:00.655Z,5.70
2023-01-09T15:03:04.057Z,5.18
2023-01-09T15:06:10.662Z,5.22
2023-01-09T15:09:26.625Z,5.35
2023-01-09T15:12:29.601Z,6.03
2023-01-09T15:15:31.702Z,4.75
2023-01-09T15:18:41.604Z,5.65
2023-01-09T15:22:06.602Z,4.82
2023-01-09T15:25:27.323Z,4.95
2023-01-09T15:28:32.520Z,4.47
2023-01-09T15:31:34.961Z,4.60
2023-01-09T15:34:37.706Z,4.93
2023-01-09T15:37:40.616Z,4.47
2023-01-09T15:40:43.013Z,4.45
2023-01-09T15:43:45.195Z,4.35
2023-01-09T15:46:50.223Z,4.72
2023-01-09T15:49:52.864Z,5.18
2023-01-09T15:52:56.362Z,5.90
2023-01-09T15:56:24.170Z,5.65
2023-01-09T15:59:28.394Z,5.53
2023-01-09T16:02:49.009Z,6.70
2023-01-09T16:06:02.868Z,5.72
2023-01-09T16:09:16.506Z,6.93
2023-01-09T16:12:22.098Z,5.97
2023-01-09T16:15:25.494Z,9.23
2023-01-09T16:18:37.480Z,10.68
2023-01-09T16:21:40.758Z,10.95
2023-01-09T16:24:43.206Z,10.32
2023-01-09T16:28:07.209Z,11.65
2023-01-09T16:31:19.863Z,10.88
2023-01-09T16:34:22.293Z,10.27
2023-01-09T16:37:25.807Z,9.88
2023-01-09T16:40:30.000Z,10.32
2023-01-09T16:43:32.139Z,10.70
2023-01-09T16:46:45.059Z,10.10
2023-01-09T16:49:47.171Z,10.07
2023-01-09T16:52:49.302Z,9.68
2023-01-09T16:55:53.961Z,8.93
2023-01-09T16:58:56.393Z,9.43
2023-01-09T17:01:58.647Z,9.98
2023-01-09T17:05:00.858Z,10.70
2023-01-09T17:08:03.042Z,8.48
2023-01-09T17:11:05.392Z,8.57
2023-01-09T17:14:09.512Z,10.15
2023-01-09T17:17:14.929Z,10.07
2023-01-09T17:20:18.364Z,10.02
2023-01-09T17:23:24.978Z,8.93
2023-01-09T17:26:45.578Z,8.98
2023-01-09T17:29:48.367Z,8.35
2023-01-09T17:32:50.499Z,8.68
2023-01-09T17:35:52.903Z,9.43
2023-01-09T17:38:55.360Z,10.13
2023-01-09T17:41:59.108Z,9.18
2023-01-09T17:45:01.351Z,9.43
2023-01-09T17:48:03.707Z,8.70
2023-01-09T17:51:05.891Z,8.23
2023-01-09T17:54:08.366Z,10.35
2023-01-09T17:57:16.380Z,8.70
2023-01-09T18:00:29.606Z,9.77
2023-01-09T18:03:33.589Z,10.57
2023-01-09T18:06:36.716Z,10.40
2023-01-09T18:09:38.832Z,9.30
2023-01-09T18:12:41.052Z,10.02
2023-01-09T18:15:44.738Z,10.75
2023-01-09T18:18:47.456Z,10.23
2023-01-09T18:21:49.602Z,10.40
2023-01-09T18:24:51.713Z,11.43
2023-01-09T18:27:53.860Z,8.90
2023-01-09T18:30:55.975Z,10.40
2023-01-09T18:34:02.147Z,10.82
2023-01-09T18:37:04.573Z,9.95
2023-01-09T18:40:08.040Z,10.23
2023-01-09T18:43:10.470Z,10.38
2023-01-09T18:46:12.868Z,8.55
2023-01-09T18:49:14.982Z,10.07
2023-01-09T18:52:17.205Z,11.25
2023-01-09T18:55:22.741Z,10.68
2023-01-09T18:58:26.857Z,10.68
2023-01-09T19:01:30.521Z,9.93
2023-01-09T19:04:32.809Z,9.82
2023-01-09T19:07:34.974Z,9.77
2023-01-09T19:10:37.144Z,9.60
2023-01-09T19:13:39.750Z,10.32
2023-01-09T19:16:42.607Z,10.23
2023-01-09T19:19:45.437Z,9.73
2023-01-09T19:22:47.812Z,10.80
2023-01-09T19:25:50.519Z,10.20
2023-01-09T19:28:55.531Z,11.38
2023-01-09T19:31:58.901Z,9.63
2023-01-09T19:35:01.413Z,9.93
2023-01-09T19:38:03.663Z,11.05
2023-01-09T19:41:18.358Z,9.70
2023-01-09T19:44:21.159Z,9.68
2023-01-09T19:47:23.273Z,10.48
2023-01-09T19:50:25.461Z,9.68
2023-01-09T19:53:27.540Z,10.07
2023-01-09T19:56:40.701Z,11.85
2023-01-09T19:59:43.777Z,9.70
2023-01-09T20:02:49.018Z,9.93
2023-01-09T20:05:51.097Z,9.82
2023-01-09T20:08:58.530Z,11.35
2023-01-09T20:12:02.452Z,9.07
2023-01-09T20:15:10.646Z,10.35
2023-01-09T20:18:14.450Z,10.40
2023-01-09T20:24:25.126Z,10.45
2023-01-09T20:27:27.320Z,11.50
2023-01-09T20:30:29.486Z,11.63
2023-01-09T20:33:31.596Z,11.25
2023-01-09T20:36:35.181Z,11.43
2023-01-09T20:39:37.636Z,11.27
2023-01-09T20:42:40.110Z,11.35
2023-01-09T20:45:42.233Z,10.00
2023-01-09T20:48:44.765Z,9.32
2023-01-09T20:51:49.485Z,10.70
2023-01-09T20:54:51.955Z,10.88
2023-01-09T20:57:54.780Z,10.90
2023-01-09T21:00:57.005Z,10.73
2023-01-09T21:03:59.792Z,10.10
2023-01-09T21:07:01.924Z,10.05
2023-01-09T21:10:04.575Z,10.82
2023-01-09T21:13:06.709Z,11.20
2023-01-09T21:16:24.562Z,10.77
2023-01-09T21:19:26.720Z,11.40
2023-01-09T21:22:31.833Z,10.70
2023-01-09T21:25:33.931Z,10.93
2023-01-09T21:28:45.887Z,10.25
2023-01-09T21:31:48.501Z,9.75
2023-01-09T21:34:50.868Z,11.07
2023-01-09T21:37:53.140Z,9.75
2023-01-09T21:40:55.486Z,9.63
2023-01-09T21:44:16.556Z,11.05
2023-01-09T21:47:18.949Z,11.20
2023-01-09T21:50:21.341Z,11.27
2023-01-09T21:53:23.889Z,10.43
2023-01-09T21:56:26.284Z,11.02
2023-01-09T21:59:29.461Z,10.60
2023-01-09T22:02:32.129Z,11.52
2023-01-09T22:05:37.416Z,11.15
2023-01-09T22:08:40.059Z,10.68
2023-01-09T22:11:43.694Z,8.30
2023-01-09T22:14:46.344Z,10.02
2023-01-09T22:17:48.842Z,11.13
2023-01-09T22:20:51.616Z,9.57
2023-01-09T22:23:54.325Z,9.88
2023-01-09T22:26:56.643Z,10.55
2023-01-09T22:29:58.803Z,10.85
2023-01-09T22:33:02.802Z,10.32
2023-01-09T22:36:07.412Z,10.30
2023-01-09T22:39:13.609Z,11.95
2023-01-09T22:42:16.876Z,11.23
2023-01-09T22:45:19.719Z,11.35
2023-01-09T22:48:21.787Z,9.88
2023-01-09T22:51:24.093Z,10.70
2023-01-09T22:54:26.218Z,11.30
2023-01-09T22:57:28.338Z,10.95
2023-01-09T23:00:30.453Z,9.02
2023-01-09T23:03:32.794Z,9.32
2023-01-09T23:06:34.880Z,10.25
2023-01-09T23:09:37.034Z,9.80
2023-01-09T23:12:39.115Z,10.68
2023-01-09T23:15:41.250Z,9.43
2023-01-09T23:18:43.327Z,11.70
2023-01-09T23:21:46.568Z,10.02
2023-01-09T23:24:48.712Z,10.65
2023-01-09T23:27:50.977Z,10.75
2023-01-09T23:30:53.252Z,9.60
2023-01-09T23:33:55.361Z,10.77
2023-01-09T23:36:57.736Z,9.07
2023-01-09T23:39:59.959Z,9.20
2023-01-09T23:43:11.133Z,10.57
2023-01-09T23:46:13.299Z,10.65
2023-01-09T23:49:15.612Z,8.88
2023-01-09T23:52:17.727Z,11.05
2023-01-09T23:55:19.932Z,9.65
2023-01-09T23:58:22.410Z,11.13
